Airfield :







YOU CAN JOIN US ON...

 
LOGIN :

Register | Disclaimer

   EN    FR    IT 

 









Legend :    VFR   Marginal VFR   IFR   Intensive IFR   Very Intensive IFR
Visi :
Ceiling :
>= 8 km
>= 3000ft
5 to 8 km
1000 to 3000 ft
1500m to 5 km
500 to 1000 ft
800 to 1500m
200 to 500 ft
< 800m
< 200 ft
Symbols :   Thunderstorms  Fog  Heavy snow  Heavy precipitations  Wind > 20 kt






- Airport Elevation : 1005 ft
- IATA code : YAH


CYAH - La Grande-4

CURRENT METAR :
  • 290615Z AUTO 24009KT 5SM -SN OVC006 M05/M06 A3009 RMK SLP213

EXPIRED METARs :
  • 290600Z AUTO 25007KT 9SM -SN OVC006 M05/M06 A3008 RMK SLP211
  • 290556Z AUTO 25008KT 9SM -SN OVC006 M05/M06 A3008 RMK SLP210
  • 290527Z AUTO 27008KT 9SM BKN008 OVC014 M05/M06 A3007 RMK SLP206
  • 290500Z AUTO 28010G15KT 9SM -SN OVC008 M04/M06 A3006 RMK SLP202
  • 290430Z AUTO 28009KT 9SM -SN OVC010 M04/M05 A3004 RMK SLP197
  • 290411Z AUTO 28007KT 9SM -SN OVC010 M04/M05 A3004 RMK SLP195
  • 290400Z AUTO 26008KT 9SM OVC010 M04/M05 A3003 RMK SLP194

Expired Forecast.



MET'MAP, your aeronautical weather chart ! - Copyright ORBIFLY December 2007 - Disclaimer

ORBIFLY MET'MAP TEAM :

Programming & Development : Alexandra Zaïnal
Concept & original design : Baudouin d'Aumeries
Assistance for programming : Marc-Olivier Méhu
Technical & hardware support : Manuel Goepfert

Contact : metmap@orbifly.com




SOURCES & CREDITS :

   NOAA